Terminal Aerodrome Forecast
Issued by NWS

Home | Current Version | Previous Version | Text Only | Print | Product List | Glossary On
Versions: 1 2 3 4 5 6 7 8 9 10 11 12
803
FTUS42 KTBW 302341
TAFLAL
TAF
KLAL 302341Z 0100/0124 12009KT P6SM SCT050 BKN250
     FM010200 12005KT P6SM BKN250
     FM011400 13008KT P6SM SCT250
     FM011800 14009KT P6SM SCT050 SCT250
      AMD NOT SKED 0102/0111=

USA.gov is the U.S. government's official web portal to all federal, state and local government web resources and services.